| time (UTC) | temp F | wind direction | speed MPH | gust MPH | rain 1hr in | rain 24hr in | rain mn in | humidity % | barometer mb |
| 20260506172459 | 60 | 360 | 1.0 | 6.0 | 0.00 | 0.10 | 0.10 | 97 | 1008.5 |
| 20260506171458 | 60 | 360 | 0.0 | 2.0 | 0.00 | 0.10 | 0.10 | 97 | 1008.4 |
| 20260506170958 | 60 | 360 | 2.0 | 2.0 | 0.00 | 0.10 | 0.10 | 97 | 1008.5 |
| 20260506170458 | 60 | 360 | 0.0 | 2.0 | 0.00 | 0.10 | 0.10 | 97 | 1008.5 |
| 20260506170002 | 60 | 360 | 1.0 | 2.0 | 0.00 | 0.10 | 0.10 | 97 | 1008.5 |
| 20260506165458 | 60 | 360 | 1.0 | 2.0 | 0.01 | 0.10 | 0.10 | 97 | 1008.6 |
| 20260506164959 | 60 | 360 | 0.0 | 2.0 | 0.01 | 0.10 | 0.10 | 97 | 1008.7 |
| 20260506163459 | 60 | 360 | 0.0 | 3.0 | 0.02 | 0.10 | 0.10 | 96 | 1008.7 |
| 20260506162458 | 61 | 360 | 0.0 | 2.0 | 0.03 | 0.10 | 0.10 | 97 | 1008.8 |
| 20260506161459 | 60 | 360 | 0.0 | 3.0 | 0.04 | 0.10 | 0.10 | 97 | 1008.7 |
| 20260506160001 | 60 | 360 | 1.0 | 4.0 | 0.05 | 0.09 | 0.09 | 97 | 1008.3 |
| 20260506155458 | 60 | 360 | 0.0 | 5.0 | 0.05 | 0.09 | 0.09 | 97 | 1008.6 |
| 20260506154959 | 60 | 360 | 0.0 | 5.0 | 0.05 | 0.09 | 0.09 | 97 | 1009.0 |
| 20260506154458 | 60 | 360 | 1.0 | 3.0 | 0.04 | 0.08 | 0.08 | 97 | 1009.3 |
| 20260506153959 | 60 | 360 | 0.0 | 2.0 | 0.04 | 0.08 | 0.08 | 97 | 1009.5 |
| 20260506153459 | 60 | 360 | 0.0 | 2.0 | 0.05 | 0.08 | 0.08 | 97 | 1009.5 |
| 20260506153000 | 60 | 360 | 2.0 | 2.0 | 0.04 | 0.07 | 0.07 | 97 | 1009.6 |
| 20260506151959 | 61 | 360 | 0.0 | 2.0 | 0.04 | 0.06 | 0.06 | 96 | 1009.8 |
| 20260506151459 | 61 | 360 | 0.0 | 2.0 | 0.04 | 0.06 | 0.06 | 96 | 1009.7 |
| 20260506150959 | 61 | 360 | 0.0 | 2.0 | 0.05 | 0.06 | 0.06 | 96 | 1009.7 |
| 20260506150458 | 61 | 360 | 0.0 | 2.0 | 0.05 | 0.05 | 0.05 | 96 | 1009.8 |
| 20260506145459 | 61 | 360 | 0.0 | 3.0 | 0.04 | 0.04 | 0.04 | 95 | 1009.8 |
| 20260506145000 | 61 | 360 | 1.0 | 2.0 | 0.04 | 0.04 | 0.04 | 95 | 1009.7 |
| 20260506144459 | 61 | 360 | 0.0 | 2.0 | 0.04 | 0.04 | 0.04 | 95 | 1009.8 |
| 20260506143959 | 61 | 360 | 0.0 | 2.0 | 0.04 | 0.04 | 0.04 | 95 | 1009.7 |
| 20260506143459 | 61 | 360 | 0.0 | 2.0 | 0.03 | 0.03 | 0.03 | 95 | 1009.6 |
| 20260506142959 | 61 | 360 | 0.0 | 2.0 | 0.03 | 0.03 | 0.03 | 95 | 1009.6 |
| 20260506142459 | 61 | 360 | 0.0 | 2.0 | 0.02 | 0.02 | 0.02 | 94 | 1009.5 |
| 20260506141959 | 61 | 360 | 0.0 | 2.0 | 0.02 | 0.02 | 0.02 | 94 | 1009.4 |
| 20260506141459 | 61 | 360 | 0.0 | 2.0 | 0.02 | 0.02 | 0.02 | 94 | 1009.5 |
| 20260506140959 | 61 | 360 | 0.0 | 2.0 | 0.01 | 0.01 | 0.01 | 94 | 1009.4 |
| 20260506140459 | 61 | 360 | 0.0 | 2.0 | 0.00 | 0.00 | 0.00 | 93 | 1009.5 |
| 20260506134458 | 62 | 360 | 0.0 | 2.0 | 0.00 | 0.00 | 0.00 | 91 | 1009.4 |
| 20260506133959 | 62 | 360 | 0.0 | 1.0 | 0.00 | 0.00 | 0.00 | 91 | 1009.4 |
| 20260506133458 | 62 | 360 | 0.0 | 2.0 | 0.00 | 0.00 | 0.00 | 91 | 1009.4 |
| 20260506132959 | 62 | 360 | 0.0 | 2.0 | 0.00 | 0.00 | 0.00 | 90 | 1009.6 |
| 20260506132000 | 62 | 360 | 0.0 | 2.0 | 0.00 | 0.00 | 0.00 | 90 | 1009.7 |
| 20260506131459 | 62 | 360 | 0.0 | 2.0 | 0.00 | 0.00 | 0.00 | 90 | 1009.7 |
| 20260506130959 | 62 | 360 | 0.0 | 2.0 | 0.00 | 0.00 | 0.00 | 89 | 1009.7 |
| 20260506130458 | 63 | 360 | 0.0 | 2.0 | 0.00 | 0.00 | 0.00 | 88 | 1009.8 |
| 20260506130002 | 63 | 360 | 2.0 | 2.0 | 0.00 | 0.00 | 0.00 | 88 | 1009.8 |
| 20260506125458 | 63 | 360 | 0.0 | 2.0 | 0.00 | 0.00 | 0.00 | 88 | 1009.8 |
| 20260506124959 | 63 | 360 | 0.0 | 2.0 | 0.00 | 0.00 | 0.00 | 87 | 1009.8 |
| 20260506124459 | 63 | 360 | 0.0 | 3.0 | 0.00 | 0.00 | 0.00 | 87 | 1009.8 |
| 20260506123459 | 63 | 360 | 2.0 | 2.0 | 0.00 | 0.00 | 0.00 | 87 | 1009.9 |
| 20260506121959 | 64 | 360 | 0.0 | 2.0 | 0.00 | 0.00 | 0.00 | 85 | 1009.7 |
| 20260506121458 | 64 | 360 | 0.0 | 2.0 | 0.00 | 0.00 | 0.00 | 84 | 1009.9 |
| 20260506121000 | 64 | 360 | 0.0 | 2.0 | 0.00 | 0.00 | 0.00 | 84 | 1009.7 |
| 20260506120001 | 64 | 360 | 0.0 | 2.0 | 0.00 | 0.00 | 0.00 | 83 | 1009.5 |
| 20260506115458 | 64 | 360 | 0.0 | 4.0 | 0.00 | 0.00 | 0.00 | 82 | 1009.5 |
| 20260506114458 | 64 | 360 | 2.0 | 3.0 | 0.00 | 0.00 | 0.00 | 81 | 1009.4 |
| 20260506113959 | 64 | 360 | 2.0 | 3.0 | 0.00 | 0.00 | 0.00 | 81 | 1009.5 |
| 20260506112959 | 64 | 360 | 0.0 | 2.0 | 0.00 | 0.00 | 0.00 | 80 | 1009.3 |
| 20260506112458 | 64 | 360 | 1.0 | 5.0 | 0.00 | 0.00 | 0.00 | 80 | 1009.2 |
| 20260506111959 | 64 | 360 | 1.0 | 4.0 | 0.00 | 0.00 | 0.00 | 80 | 1009.3 |
| 20260506111458 | 65 | 360 | 0.0 | 4.0 | 0.00 | 0.00 | 0.00 | 80 | 1009.1 |
| 20260506110959 | 65 | 360 | 0.0 | 8.0 | 0.00 | 0.00 | 0.00 | 80 | 1009.3 |
| 20260506110458 | 65 | 360 | 0.0 | 8.0 | 0.00 | 0.00 | 0.00 | 79 | 1009.2 |
| 20260506110001 | 65 | 360 | 0.0 | 5.0 | 0.00 | 0.00 | 0.00 | 80 | 1009.2 |
| 20260506105458 | 65 | 360 | 0.0 | 5.0 | 0.00 | 0.00 | 0.00 | 80 | 1009.3 |
| 20260506104959 | 0 | 0.0 | 0.0 | 0.00 | 0.00 | 0.00 | 1009.0 | ||
| 20260506104458 | 0 | 0.0 | 0.0 | 0.00 | 0.00 | 0.00 | 1008.9 | ||
| 20260506103959 | 0 | 0.0 | 0.0 | 0.00 | 0.00 | 0.00 | 1008.7 | ||
| 20260506103458 | 0 | 0.0 | 0.0 | 0.00 | 0.00 | 0.00 | 1008.9 | ||
| 20260506103000 | 0 | 0.0 | 0.0 | 0.00 | 0.00 | 0.00 | 1008.9 | ||
| 20260506101959 | 0 | 0.0 | 0.0 | 0.00 | 0.00 | 0.00 | 1008.6 | ||
| 20260506101458 | 0 | 0.0 | 0.0 | 0.00 | 0.00 | 0.00 | 1008.6 | ||
| 20260506100959 | 0 | 0.0 | 0.0 | 0.00 | 0.00 | 0.00 | 1008.6 | ||
| 20260506100458 | 0 | 0.0 | 0.0 | 0.00 | 0.00 | 0.00 | 1008.5 | ||
| 20260506094958 | 0 | 0.0 | 0.0 | 0.00 | 0.00 | 0.00 | 1008.6 | ||
| 20260506094459 | 0 | 0.0 | 0.0 | 0.00 | 0.00 | 0.00 | 1008.6 | ||
| 20260506093959 | 0 | 0.0 | 0.0 | 0.00 | 0.00 | 0.00 | 1008.8 | ||
| 20260506092958 | 0 | 0.0 | 0.0 | 0.00 | 0.00 | 0.00 | 1008.6 | ||
| 20260506092458 | 0 | 0.0 | 0.0 | 0.00 | 0.00 | 0.00 | 1008.7 | ||
| 20260506091959 | 0 | 0.0 | 0.0 | 0.00 | 0.00 | 0.00 | 1008.6 | ||
| 20260506091458 | 0 | 0.0 | 0.0 | 0.00 | 0.00 | 0.00 | 1008.6 | ||
| 20260506090959 | 0 | 0.0 | 0.0 | 0.00 | 0.00 | 0.00 | 1008.6 | ||
| 20260506090458 | 0 | 0.0 | 0.0 | 0.00 | 0.00 | 0.00 | 1008.6 | ||
| 20260506090000 | 0 | 0.0 | 0.0 | 0.00 | 0.00 | 0.00 | 1008.7 | ||
| 20260506085458 | 0 | 0.0 | 0.0 | 0.00 | 0.00 | 0.00 | 1008.7 | ||
| 20260506084959 | 0 | 0.0 | 0.0 | 0.00 | 0.00 | 0.00 | 1008.7 | ||
| 20260506083458 | 0 | 0.0 | 0.0 | 0.00 | 0.00 | 0.00 | 1008.7 | ||
| 20260506082959 | 0 | 0.0 | 0.0 | 0.00 | 0.00 | 0.00 | 1008.8 | ||
| 20260506082458 | 0 | 0.0 | 0.0 | 0.00 | 0.00 | 0.00 | 1008.8 | ||
| 20260506081458 | 0 | 0.0 | 0.0 | 0.00 | 0.00 | 0.00 | 1008.9 | ||
| 20260506080959 | 0 | 0.0 | 0.0 | 0.00 | 0.00 | 0.00 | 1008.8 | ||
| 20260506080458 | 0 | 0.0 | 0.0 | 0.00 | 0.00 | 0.00 | 1008.9 | ||
| 20260506073458 | 0 | 0.0 | 0.0 | 0.00 | 0.00 | 0.00 | 1008.9 | ||
| 20260506072458 | 0 | 0.0 | 0.0 | 0.00 | 0.00 | 0.00 | 1008.9 | ||
| 20260506071959 | 0 | 0.0 | 0.0 | 0.00 | 0.00 | 0.00 | 1008.9 | ||
| 20260506071458 | 0 | 0.0 | 0.0 | 0.00 | 0.00 | 0.00 | 1009.1 | ||
| 20260506070959 | 0 | 0.0 | 0.0 | 0.00 | 0.00 | 0.00 | 1009.0 | ||
| 20260506070458 | 0 | 0.0 | 0.0 | 0.00 | 0.00 | 0.00 | 1009.0 | ||
| 20260506062458 | 68 | 360 | 1.0 | 3.0 | 0.00 | 0.00 | 0.00 | 65 | 1009.3 |
| 20260506061959 | 68 | 360 | 0.0 | 4.0 | 0.00 | 0.00 | 0.00 | 64 | 1009.4 |
| 20260506061458 | 68 | 360 | 2.0 | 4.0 | 0.00 | 0.00 | 0.00 | 64 | 1009.5 |
| 20260506060959 | 68 | 360 | 1.0 | 3.0 | 0.00 | 0.00 | 0.00 | 64 | 1009.4 |
| 20260506060458 | 68 | 360 | 2.0 | 4.0 | 0.00 | 0.00 | 0.00 | 64 | 1009.5 |
| 20260506050958 | 69 | 360 | 1.0 | 6.0 | 0.00 | 0.00 | 0.00 | 62 | 1009.8 |
| 20260506050458 | 69 | 360 | 1.0 | 2.0 | 0.00 | 0.00 | 0.00 | 62 | 1010.0 |
| 20260506044959 | 69 | 360 | 1.0 | 4.0 | 0.00 | 0.00 | 0.00 | 61 | 1010.0 |
| 20260506044000 | 69 | 360 | 8.0 | 10.0 | 0.00 | 0.00 | 0.00 | 61 | 1010.0 |
| 20260506043500 | 69 | 360 | 0.0 | 4.0 | 0.00 | 0.00 | 0.00 | 61 | 1010.1 |
| 20260506043000 | 69 | 360 | 0.0 | 4.0 | 0.00 | 0.00 | 0.00 | 61 | 1010.0 |
| 20260506042500 | 69 | 360 | 0.0 | 3.0 | 0.00 | 0.00 | 0.00 | 61 | 1010.1 |
| 20260506042000 | 69 | 360 | 1.0 | 5.0 | 0.00 | 0.00 | 0.00 | 60 | 1010.1 |
| 20260506041000 | 68 | 360 | 0.0 | 4.0 | 0.00 | 0.00 | 0.00 | 61 | 1010.2 |
| 20260506040500 | 68 | 360 | 1.0 | 2.0 | 0.00 | 0.00 | 0.00 | 60 | 1010.1 |
| 20260506040004 | 68 | 360 | 0.0 | 3.0 | 0.00 | 0.00 | 0.00 | 61 | 1010.3 |
| 20260506035500 | 68 | 360 | 0.0 | 3.0 | 0.00 | 0.00 | 0.00 | 61 | 1010.2 |
| 20260506034500 | 68 | 360 | 0.0 | 3.0 | 0.00 | 0.00 | 0.00 | 61 | 1010.2 |
| 20260506033500 | 68 | 360 | 0.0 | 3.0 | 0.00 | 0.00 | 0.00 | 60 | 1010.3 |
| 20260506033000 | 68 | 360 | 0.0 | 2.0 | 0.00 | 0.00 | 0.00 | 61 | 1010.2 |
| 20260506032500 | 68 | 360 | 0.0 | 2.0 | 0.00 | 0.00 | 0.00 | 60 | 1010.2 |
| 20260506032000 | 68 | 360 | 2.0 | 2.0 | 0.00 | 0.00 | 0.00 | 60 | 1010.3 |
| 20260506031500 | 68 | 360 | 0.0 | 3.0 | 0.00 | 0.00 | 0.00 | 59 | 1010.2 |
| 20260506031001 | 68 | 360 | 0.0 | 3.0 | 0.00 | 0.00 | 0.00 | 60 | 1010.1 |
| 20260506030500 | 68 | 360 | 0.0 | 2.0 | 0.00 | 0.00 | 0.00 | 60 | 1010.3 |
| 20260506030004 | 68 | 360 | 0.0 | 2.0 | 0.00 | 0.00 | 0.00 | 59 | 1010.2 |
| 20260506025500 | 68 | 360 | 0.0 | 2.0 | 0.00 | 0.00 | 0.00 | 59 | 1010.2 |
| 20260506025001 | 69 | 360 | 0.0 | 2.0 | 0.00 | 0.00 | 0.00 | 60 | 1010.2 |
| 20260506024001 | 69 | 360 | 0.0 | 2.0 | 0.00 | 0.00 | 0.00 | 58 | 1010.2 |
| 20260506023500 | 69 | 360 | 0.0 | 2.0 | 0.00 | 0.00 | 0.00 | 58 | 1010.2 |
| 20260506023004 | 69 | 360 | 0.0 | 5.0 | 0.00 | 0.00 | 0.00 | 58 | 1010.1 |
| 20260506022501 | 69 | 360 | 0.0 | 5.0 | 0.00 | 0.00 | 0.00 | 58 | 1010.0 |
| 20260506022001 | 69 | 360 | 0.0 | 3.0 | 0.00 | 0.00 | 0.00 | 58 | 1010.1 |
| 20260506021500 | 69 | 360 | 0.0 | 3.0 | 0.00 | 0.00 | 0.00 | 58 | 1010.1 |
| 20260506021000 | 69 | 360 | 0.0 | 3.0 | 0.00 | 0.00 | 0.00 | 58 | 1010.2 |
| 20260506020500 | 70 | 360 | 0.0 | 3.0 | 0.00 | 0.00 | 0.00 | 58 | 1010.1 |
| 20260506020004 | 70 | 360 | 0.0 | 2.0 | 0.00 | 0.00 | 0.00 | 57 | 1010.2 |
| 20260506015500 | 70 | 360 | 0.0 | 2.0 | 0.00 | 0.00 | 0.00 | 57 | 1010.1 |
| 20260506015001 | 70 | 360 | 0.0 | 2.0 | 0.00 | 0.00 | 0.00 | 57 | 1010.0 |
| 20260506014001 | 71 | 360 | 0.0 | 2.0 | 0.00 | 0.00 | 0.00 | 55 | 1010.0 |
| 20260506013500 | 71 | 360 | 0.0 | 2.0 | 0.00 | 0.00 | 0.00 | 55 | 1009.9 |
| 20260506013000 | 71 | 360 | 0.0 | 3.0 | 0.00 | 0.00 | 0.00 | 55 | 1009.9 |
| 20260506012500 | 71 | 360 | 0.0 | 3.0 | 0.00 | 0.00 | 0.00 | 55 | 1009.8 |
| 20260506012000 | 72 | 360 | 0.0 | 2.0 | 0.00 | 0.00 | 0.00 | 54 | 1009.8 |
| 20260506011500 | 72 | 360 | 1.0 | 4.0 | 0.00 | 0.00 | 0.00 | 53 | 1009.7 |
| 20260506011001 | 72 | 360 | 0.0 | 4.0 | 0.00 | 0.00 | 0.00 | 52 | 1009.6 |
| 20260506010500 | 73 | 360 | 0.0 | 2.0 | 0.00 | 0.00 | 0.00 | 51 | 1009.7 |
| 20260506010004 | 73 | 360 | 1.0 | 4.0 | 0.00 | 0.00 | 0.00 | 50 | 1009.6 |
| 20260506005501 | 73 | 360 | 0.0 | 4.0 | 0.00 | 0.00 | 0.00 | 50 | 1009.4 |
| 20260506005001 | 73 | 360 | 0.0 | 2.0 | 0.00 | 0.00 | 0.00 | 49 | 1009.3 |
| 20260506004500 | 74 | 360 | 0.0 | 3.0 | 0.00 | 0.00 | 0.00 | 49 | 1009.3 |
| 20260506004004 | 74 | 360 | 0.0 | 2.0 | 0.00 | 0.00 | 0.00 | 49 | 1009.3 |
| 20260506002500 | 74 | 360 | 1.0 | 3.0 | 0.00 | 0.00 | 0.00 | 47 | 1009.0 |
| 20260506002000 | 74 | 360 | 0.0 | 3.0 | 0.00 | 0.00 | 0.00 | 48 | 1009.0 |
| 20260506001500 | 74 | 360 | 0.0 | 5.0 | 0.00 | 0.00 | 0.00 | 48 | 1009.0 |
| 20260506001000 | 74 | 360 | 4.0 | 5.0 | 0.00 | 0.00 | 0.00 | 48 | 1009.0 |
| 20260506000500 | 75 | 360 | 0.0 | 11.0 | 0.00 | 0.00 | 0.00 | 48 | 1008.9 |
| 20260505235500 | 75 | 360 | 0.0 | 5.0 | 0.00 | 0.00 | 0.00 | 48 | 1008.8 |
| 20260505234500 | 75 | 360 | 0.0 | 3.0 | 0.00 | 0.00 | 0.00 | 49 | 1008.9 |
| 20260505233500 | 76 | 360 | 0.0 | 2.0 | 0.00 | 0.00 | 0.00 | 49 | 1008.8 |
| 20260505233000 | 76 | 360 | 0.0 | 4.0 | 0.00 | 0.00 | 0.00 | 49 | 1008.7 |
| 20260505232500 | 76 | 360 | 0.0 | 4.0 | 0.00 | 0.00 | 0.00 | 48 | 1008.6 |
| 20260505231500 | 77 | 360 | 0.0 | 3.0 | 0.00 | 0.00 | 0.00 | 48 | 1008.6 |
| 20260505231000 | 77 | 360 | 0.0 | 6.0 | 0.00 | 0.00 | 0.00 | 47 | 1008.7 |
| 20260505230459 | 77 | 360 | 0.0 | 9.0 | 0.00 | 0.00 | 0.00 | 47 | 1008.6 |
| 20260505230004 | 77 | 360 | 0.0 | 9.0 | 0.00 | 0.00 | 0.00 | 45 | 1008.5 |
| 20260505225459 | 77 | 360 | 0.0 | 6.0 | 0.00 | 0.00 | 0.00 | 46 | 1008.6 |
| 20260505225000 | 77 | 360 | 0.0 | 4.0 | 0.00 | 0.00 | 0.00 | 45 | 1008.6 |
| 20260505224500 | 77 | 360 | 2.0 | 3.0 | 0.00 | 0.00 | 0.00 | 44 | 1008.7 |
| 20260505224001 | 77 | 360 | 0.0 | 4.0 | 0.00 | 0.00 | 0.00 | 45 | 1008.6 |
| 20260505223500 | 78 | 360 | 2.0 | 5.0 | 0.00 | 0.00 | 0.00 | 45 | 1008.7 |
| 20260505223000 | 78 | 360 | 0.0 | 5.0 | 0.00 | 0.00 | 0.00 | 44 | 1008.6 |
| 20260505222500 | 78 | 360 | 2.0 | 12.0 | 0.00 | 0.00 | 0.00 | 44 | 1008.6 |
| 20260505222000 | 79 | 360 | 1.0 | 12.0 | 0.00 | 0.00 | 0.00 | 43 | 1008.6 |
| 20260505221501 | 79 | 360 | 0.0 | 8.0 | 0.00 | 0.00 | 0.00 | 43 | 1008.6 |
| 20260505220459 | 79 | 360 | 2.0 | 4.0 | 0.00 | 0.00 | 0.00 | 43 | 1008.5 |
| 20260505220006 | 80 | 360 | 2.0 | 7.0 | 0.00 | 0.00 | 0.00 | 42 | 1008.4 |
| 20260505215459 | 80 | 348 | 2.0 | 7.0 | 0.00 | 0.00 | 0.00 | 42 | 1008.4 |
| 20260505214459 | 80 | 360 | 2.0 | 8.0 | 0.00 | 0.00 | 0.00 | 42 | 1008.4 |
| 20260505214000 | 80 | 360 | 1.0 | 5.0 | 0.00 | 0.00 | 0.00 | 43 | 1008.3 |
| 20260505213459 | 80 | 360 | 0.0 | 9.0 | 0.00 | 0.00 | 0.00 | 43 | 1008.4 |
| 20260505213000 | 80 | 360 | 0.0 | 9.0 | 0.00 | 0.00 | 0.00 | 43 | 1008.4 |
| 20260505212500 | 80 | 159 | 5.0 | 9.0 | 0.00 | 0.00 | 0.00 | 41 | 1008.4 |
| 20260505212000 | 80 | 185 | 1.0 | 9.0 | 0.00 | 0.00 | 0.00 | 43 | 1008.3 |
| 20260505211500 | 80 | 248 | 4.0 | 12.0 | 0.00 | 0.00 | 0.00 | 44 | 1008.2 |
| 20260505211001 | 81 | 58 | 0.0 | 12.0 | 0.00 | 0.00 | 0.00 | 40 | 1008.2 |
| 20260505210500 | 81 | 140 | 2.0 | 8.0 | 0.00 | 0.00 | 0.00 | 43 | 1008.1 |
| 20260505210006 | 81 | 263 | 1.0 | 8.0 | 0.00 | 0.00 | 0.00 | 42 | 1008.2 |
| 20260505205459 | 81 | 257 | 0.0 | 3.0 | 0.00 | 0.00 | 0.00 | 43 | 1008.2 |
| 20260505205000 | 81 | 23 | 2.0 | 5.0 | 0.00 | 0.00 | 0.00 | 43 | 1008.1 |
| 20260505204500 | 81 | 223 | 2.0 | 9.0 | 0.00 | 0.00 | 0.00 | 46 | 1008.2 |
| 20260505203500 | 81 | 312 | 1.0 | 6.0 | 0.00 | 0.00 | 0.00 | 44 | 1008.4 |
| 20260505203000 | 81 | 164 | 0.0 | 10.0 | 0.00 | 0.00 | 0.00 | 43 | 1008.3 |
| 20260505202500 | 81 | 234 | 5.0 | 13.0 | 0.00 | 0.00 | 0.00 | 43 | 1008.4 |
| 20260505202000 | 81 | 231 | 1.0 | 13.0 | 0.00 | 0.00 | 0.00 | 41 | 1008.5 |
| 20260505201459 | 81 | 157 | 0.0 | 9.0 | 0.00 | 0.00 | 0.00 | 42 | 1008.3 |
| 20260505201001 | 81 | 175 | 0.0 | 7.0 | 0.00 | 0.00 | 0.00 | 43 | 1008.5 |
| 20260505195459 | 81 | 257 | 4.0 | 7.0 | 0.00 | 0.00 | 0.00 | 43 | 1008.5 |
| 20260505195005 | 81 | 185 | 3.0 | 5.0 | 0.00 | 0.00 | 0.00 | 45 | 1008.6 |
| 20260505194459 | 81 | 76 | 1.0 | 11.0 | 0.00 | 0.00 | 0.00 | 45 | 1008.7 |
| 20260505193459 | 81 | 134 | 2.0 | 7.0 | 0.00 | 0.00 | 0.00 | 44 | 1008.7 |
| 20260505193000 | 81 | 158 | 0.0 | 7.0 | 0.00 | 0.00 | 0.00 | 45 | 1008.6 |
| 20260505192500 | 81 | 153 | 1.0 | 8.0 | 0.00 | 0.00 | 0.00 | 45 | 1008.8 |
| 20260505191000 | 81 | 237 | 2.0 | 14.0 | 0.00 | 0.00 | 0.00 | 43 | 1008.8 |
| 20260505190459 | 81 | 30 | 1.0 | 8.0 | 0.00 | 0.00 | 0.00 | 46 | 1008.8 |
| 20260505190004 | 81 | 348 | 0.0 | 14.0 | 0.00 | 0.00 | 0.00 | 48 | 1009.0 |
| 20260505185459 | 81 | 277 | 0.0 | 14.0 | 0.00 | 0.00 | 0.00 | 50 | 1009.1 |
| 20260505185000 | 81 | 164 | 4.0 | 9.0 | 0.00 | 0.00 | 0.00 | 46 | 1009.0 |
| 20260505184500 | 81 | 146 | 5.0 | 9.0 | 0.00 | 0.00 | 0.00 | 47 | 1009.2 |
| 20260505184000 | 81 | 170 | 5.0 | 16.0 | 0.00 | 0.00 | 0.00 | 46 | 1009.3 |
| 20260505183500 | 82 | 167 | 12.0 | 16.0 | 0.00 | 0.00 | 0.00 | 46 | 1009.3 |
| 20260505183000 | 82 | 236 | 2.0 | 9.0 | 0.00 | 0.00 | 0.00 | 46 | 1009.4 |
| 20260505182000 | 82 | 197 | 1.0 | 11.0 | 0.00 | 0.00 | 0.00 | 47 | 1009.3 |
| 20260505181500 | 82 | 168 | 6.0 | 12.0 | 0.00 | 0.00 | 0.00 | 46 | 1009.3 |
| 20260505181000 | 82 | 165 | 2.0 | 8.0 | 0.00 | 0.00 | 0.00 | 45 | 1009.3 |
| 20260505180500 | 83 | 167 | 3.0 | 5.0 | 0.00 | 0.00 | 0.00 | 44 | 1009.3 |
| 20260505180002 | 83 | 317 | 0.0 | 7.0 | 0.00 | 0.00 | 0.00 | 48 | 1009.4 |
| 20260505175500 | 83 | 29 | 1.0 | 7.0 | 0.00 | 0.00 | 0.00 | 40 | 1009.4 |
| 20260505174000 | 84 | 238 | 1.0 | 5.0 | 0.00 | 0.00 | 0.00 | 45 | 1009.3 |
| 20260505173459 | 84 | 269 | 1.0 | 5.0 | 0.00 | 0.00 | 0.00 | 44 | 1009.4 |
| 20260505173000 | 83 | 5 | 1.0 | 5.0 | 0.00 | 0.00 | 0.00 | 42 | 1009.3 |